sensor_id;sensor_type;location;lat;lon;timestamp;pressure;altitude;pressure_sealevel;temperature;humidity
19457;BME280;9867;48.094;11.478;2023-04-24T00:00:49;94273.25;;;10.27;100.00
19457;BME280;9867;48.094;11.478;2023-04-24T00:03:17;94269.53;;;10.23;100.00
19457;BME280;9867;48.094;11.478;2023-04-24T00:05:49;94270.63;;;10.15;100.00
19457;BME280;9867;48.094;11.478;2023-04-24T00:08:18;94267.03;;;10.16;100.00
19457;BME280;9867;48.094;11.478;2023-04-24T00:10:46;94267.19;;;10.21;100.00
19457;BME280;9867;48.094;11.478;2023-04-24T00:13:14;94269.03;;;10.14;100.00
19457;BME280;9867;48.094;11.478;2023-04-24T00:15:42;94271.59;;;10.14;100.00
19457;BME280;9867;48.094;11.478;2023-04-24T00:18:10;94271.59;;;10.14;100.00
19457;BME280;9867;48.094;11.478;2023-04-24T00:20:40;94273.25;;;10.09;100.00
19457;BME280;9867;48.094;11.478;2023-04-24T00:23:11;94279.94;;;10.10;100.00
19457;BME280;9867;48.094;11.478;2023-04-24T00:25:39;94274.38;;;10.13;100.00
19457;BME280;9867;48.094;11.478;2023-04-24T00:28:07;94276.81;;;10.08;100.00
19457;BME280;9867;48.094;11.478;2023-04-24T00:30:35;94273.53;;;10.01;100.00
19457;BME280;9867;48.094;11.478;2023-04-24T00:33:04;94273.72;;;9.99;100.00
19457;BME280;9867;48.094;11.478;2023-04-24T00:35:32;94271.38;;;9.98;100.00
19457;BME280;9867;48.094;11.478;2023-04-24T00:37:59;94278.28;;;9.97;100.00
19457;BME280;9867;48.094;11.478;2023-04-24T00:40:29;94271.81;;;9.95;100.00
19457;BME280;9867;48.094;11.478;2023-04-24T00:42:57;94271.69;;;9.89;100.00
19457;BME280;9867;48.094;11.478;2023-04-24T00:45:25;94267.75;;;9.87;100.00
19457;BME280;9867;48.094;11.478;2023-04-24T00:47:53;94269.81;;;9.78;100.00
19457;BME280;9867;48.094;11.478;2023-04-24T00:50:22;94263.34;;;9.76;100.00
19457;BME280;9867;48.094;11.478;2023-04-24T00:52:50;94259.56;;;9.78;100.00
19457;BME280;9867;48.094;11.478;2023-04-24T00:55:19;94268.03;;;9.79;100.00
19457;BME280;9867;48.094;11.478;2023-04-24T00:57:49;94268.03;;;9.79;100.00
19457;BME280;9867;48.094;11.478;2023-04-24T01:00:17;94264.69;;;9.78;100.00
19457;BME280;9867;48.094;11.478;2023-04-24T01:02:46;94258.50;;;9.68;100.00
19457;BME280;9867;48.094;11.478;2023-04-24T01:05:15;94265.81;;;9.64;100.00
19457;BME280;9867;48.094;11.478;2023-04-24T01:07:45;94268.19;;;9.66;100.00
19457;BME280;9867;48.094;11.478;2023-04-24T01:10:16;94263.47;;;9.63;100.00
19457;BME280;9867;48.094;11.478;2023-04-24T01:12:45;94272.94;;;9.62;100.00
19457;BME280;9867;48.094;11.478;2023-04-24T01:15:15;94262.84;;;9.67;100.00
19457;BME280;9867;48.094;11.478;2023-04-24T01:17:43;94257.84;;;9.72;100.00
19457;BME280;9867;48.094;11.478;2023-04-24T01:20:13;94262.84;;;9.67;100.00
19457;BME280;9867;48.094;11.478;2023-04-24T01:22:43;94261.84;;;9.68;100.00
19457;BME280;9867;48.094;11.478;2023-04-24T01:25:11;94263.38;;;9.69;100.00
19457;BME280;9867;48.094;11.478;2023-04-24T01:27:39;94267.81;;;9.62;100.00
19457;BME280;9867;48.094;11.478;2023-04-24T01:30:08;94265.31;;;9.55;100.00
19457;BME280;9867;48.094;11.478;2023-04-24T01:32:36;94260.13;;;9.62;100.00
19457;BME280;9867;48.094;11.478;2023-04-24T01:35:06;94270.38;;;9.62;100.00
19457;BME280;9867;48.094;11.478;2023-04-24T01:37:34;94262.13;;;9.60;100.00
19457;BME280;9867;48.094;11.478;2023-04-24T01:40:07;94263.06;;;9.66;100.00
19457;BME280;9867;48.094;11.478;2023-04-24T01:42:35;94265.25;;;9.62;100.00
19457;BME280;9867;48.094;11.478;2023-04-24T01:45:04;94261.91;;;9.62;100.00
19457;BME280;9867;48.094;11.478;2023-04-24T01:47:32;94263.91;;;9.60;100.00
19457;BME280;9867;48.094;11.478;2023-04-24T01:50:00;94260.19;;;9.55;100.00
19457;BME280;9867;48.094;11.478;2023-04-24T01:52:28;94264.53;;;9.55;100.00
19457;BME280;9867;48.094;11.478;2023-04-24T01:54:59;94265.66;;;9.59;100.00
19457;BME280;9867;48.094;11.478;2023-04-24T01:57:28;94270.22;;;9.57;100.00
19457;BME280;9867;48.094;11.478;2023-04-24T01:59:57;94263.75;;;9.54;100.00
19457;BME280;9867;48.094;11.478;2023-04-24T02:02:25;94266.22;;;9.43;100.00
19457;BME280;9867;48.094;11.478;2023-04-24T02:04:56;94260.31;;;9.42;100.00
19457;BME280;9867;48.094;11.478;2023-04-24T02:07:24;94268.91;;;9.48;100.00
19457;BME280;9867;48.094;11.478;2023-04-24T02:09:52;94269.41;;;9.38;100.00
19457;BME280;9867;48.094;11.478;2023-04-24T02:12:20;94266.63;;;9.40;100.00
19457;BME280;9867;48.094;11.478;2023-04-24T02:14:52;94266.06;;;9.38;100.00
19457;BME280;9867;48.094;11.478;2023-04-24T02:17:19;94267.69;;;9.32;100.00
19457;BME280;9867;48.094;11.478;2023-04-24T02:19:47;94267.78;;;9.44;100.00
19457;BME280;9867;48.094;11.478;2023-04-24T02:22:16;94261.16;;;9.36;100.00
19457;BME280;9867;48.094;11.478;2023-04-24T02:24:44;94266.44;;;9.41;100.00
19457;BME280;9867;48.094;11.478;2023-04-24T02:27:14;94267.78;;;9.44;100.00
19457;BME280;9867;48.094;11.478;2023-04-24T02:29:42;94253.97;;;9.45;100.00
19457;BME280;9867;48.094;11.478;2023-04-24T02:32:14;94261.16;;;9.36;100.00
19457;BME280;9867;48.094;11.478;2023-04-24T02:34:42;94262.72;;;9.37;100.00
19457;BME280;9867;48.094;11.478;2023-04-24T02:37:11;94254.47;;;9.35;100.00
19457;BME280;9867;48.094;11.478;2023-04-24T02:39:39;94268.25;;;9.34;100.00
19457;BME280;9867;48.094;11.478;2023-04-24T02:42:07;94261.78;;;9.32;100.00
19457;BME280;9867;48.094;11.478;2023-04-24T02:44:35;94263.19;;;9.28;100.00
19457;BME280;9867;48.094;11.478;2023-04-24T02:47:03;94264.59;;;9.23;100.00
19457;BME280;9867;48.094;11.478;2023-04-24T02:49:32;94264.16;;;9.27;100.00
19457;BME280;9867;48.094;11.478;2023-04-24T02:52:00;94261.03;;;9.24;100.00
19457;BME280;9867;48.094;11.478;2023-04-24T02:54:31;94255.78;;;9.19;100.00
19457;BME280;9867;48.094;11.478;2023-04-24T02:56:58;94261.63;;;9.27;100.00
19457;BME280;9867;48.094;11.478;2023-04-24T02:59:27;94259.69;;;9.22;100.00
19457;BME280;9867;48.094;11.478;2023-04-24T03:01:55;94261.41;;;9.28;100.00
19457;BME280;9867;48.094;11.478;2023-04-24T03:04:23;94255.91;;;9.24;100.00
19457;BME280;9867;48.094;11.478;2023-04-24T03:06:53;94265.44;;;9.17;100.00
19457;BME280;9867;48.094;11.478;2023-04-24T03:09:21;94259.75;;;9.15;100.00
19457;BME280;9867;48.094;11.478;2023-04-24T03:11:50;94264.91;;;9.09;100.00
19457;BME280;9867;48.094;11.478;2023-04-24T03:14:17;94269.28;;;9.02;100.00
19457;BME280;9867;48.094;11.478;2023-04-24T03:16:45;94256.88;;;9.05;100.00
19457;BME280;9867;48.094;11.478;2023-04-24T03:19:13;94252.56;;;8.99;100.00
19457;BME280;9867;48.094;11.478;2023-04-24T03:21:54;94256.50;;;9.02;100.00
19457;BME280;9867;48.094;11.478;2023-04-24T03:24:22;94257.69;;;8.99;100.00
19457;BME280;9867;48.094;11.478;2023-04-24T03:26:51;94262.41;;;9.02;100.00
19457;BME280;9867;48.094;11.478;2023-04-24T03:29:39;94256.28;;;9.03;100.00
19457;BME280;9867;48.094;11.478;2023-04-24T03:32:07;94255.88;;;9.06;100.00
19457;BME280;9867;48.094;11.478;2023-04-24T03:34:37;94257.84;;;9.04;100.00
19457;BME280;9867;48.094;11.478;2023-04-24T03:37:07;94253.63;;;8.92;100.00
19457;BME280;9867;48.094;11.478;2023-04-24T03:39:39;94252.47;;;8.87;100.00
19457;BME280;9867;48.094;11.478;2023-04-24T03:42:08;94240.31;;;8.83;100.00
19457;BME280;9867;48.094;11.478;2023-04-24T03:44:46;94249.53;;;8.84;100.00
19457;BME280;9867;48.094;11.478;2023-04-24T03:47:15;94243.19;;;8.93;100.00
19457;BME280;9867;48.094;11.478;2023-04-24T03:49:43;94239.78;;;8.99;100.00
19457;BME280;9867;48.094;11.478;2023-04-24T03:52:13;94247.47;;;8.99;100.00
19457;BME280;9867;48.094;11.478;2023-04-24T03:54:40;94247.66;;;8.98;100.00
19457;BME280;9867;48.094;11.478;2023-04-24T03:57:10;94231.41;;;8.92;100.00
19457;BME280;9867;48.094;11.478;2023-04-24T03:59:48;94233.88;;;8.99;100.00
19457;BME280;9867;48.094;11.478;2023-04-24T04:02:17;94233.34;;;8.97;100.00
19457;BME280;9867;48.094;11.478;2023-04-24T04:04:46;94235.91;;;8.97;100.00
19457;BME280;9867;48.094;11.478;2023-04-24T04:07:15;94232.91;;;9.00;100.00
19457;BME280;9867;48.094;11.478;2023-04-24T04:09:43;94230.72;;;9.03;100.00
19457;BME280;9867;48.094;11.478;2023-04-24T04:12:14;94234.25;;;9.02;100.00
19457;BME280;9867;48.094;11.478;2023-04-24T04:14:42;94232.69;;;9.01;100.00
19457;BME280;9867;48.094;11.478;2023-04-24T04:17:10;94229.34;;;9.01;100.00
19457;BME280;9867;48.094;11.478;2023-04-24T04:19:38;94236.22;;;9.00;100.00
19457;BME280;9867;48.094;11.478;2023-04-24T04:22:07;94230.00;;;8.96;100.00
19457;BME280;9867;48.094;11.478;2023-04-24T04:24:42;94249.03;;;9.00;100.00
19457;BME280;9867;48.094;11.478;2023-04-24T04:27:11;94250.00;;;8.99;100.00
19457;BME280;9867;48.094;11.478;2023-04-24T04:29:52;94248.25;;;9.00;100.00
19457;BME280;9867;48.094;11.478;2023-04-24T04:32:20;94242.13;;;9.01;100.00
19457;BME280;9867;48.094;11.478;2023-04-24T04:34:49;94251.16;;;9.03;100.00
19457;BME280;9867;48.094;11.478;2023-04-24T04:37:21;94255.56;;;8.96;100.00
19457;BME280;9867;48.094;11.478;2023-04-24T04:39:54;94255.34;;;8.98;100.00
19457;BME280;9867;48.094;11.478;2023-04-24T04:42:24;94265.22;;;8.94;100.00
19457;BME280;9867;48.094;11.478;2023-04-24T04:44:53;94267.25;;;8.85;100.00
19457;BME280;9867;48.094;11.478;2023-04-24T04:47:29;94270.13;;;8.96;100.00
19457;BME280;9867;48.094;11.478;2023-04-24T04:49:58;94261.03;;;9.00;100.00
19457;BME280;9867;48.094;11.478;2023-04-24T04:52:27;94261.50;;;8.90;100.00
19457;BME280;9867;48.094;11.478;2023-04-24T04:55:06;94267.91;;;8.99;100.00
19457;BME280;9867;48.094;11.478;2023-04-24T04:57:55;94273.81;;;9.00;100.00
19457;BME280;9867;48.094;11.478;2023-04-24T05:00:24;94282.44;;;9.05;100.00
19457;BME280;9867;48.094;11.478;2023-04-24T05:02:52;94272.00;;;9.07;100.00
19457;BME280;9867;48.094;11.478;2023-04-24T05:05:26;94279.53;;;9.02;100.00
19457;BME280;9867;48.094;11.478;2023-04-24T05:07:54;94289.34;;;9.05;100.00
19457;BME280;9867;48.094;11.478;2023-04-24T05:10:24;94289.50;;;9.10;100.00
19457;BME280;9867;48.094;11.478;2023-04-24T05:12:53;94293.78;;;9.16;100.00
19457;BME280;9867;48.094;11.478;2023-04-24T05:15:21;94292.69;;;9.30;100.00
19457;BME280;9867;48.094;11.478;2023-04-24T05:17:49;94289.19;;;9.24;100.00
19457;BME280;9867;48.094;11.478;2023-04-24T05:20:17;94298.38;;;9.32;100.00
19457;BME280;9867;48.094;11.478;2023-04-24T05:22:45;94298.75;;;9.36;100.00
19457;BME280;9867;48.094;11.478;2023-04-24T05:25:14;94310.16;;;9.40;100.00
19457;BME280;9867;48.094;11.478;2023-04-24T05:27:51;94309.53;;;9.44;100.00
19457;BME280;9867;48.094;11.478;2023-04-24T05:30:21;94306.59;;;9.41;100.00
19457;BME280;9867;48.094;11.478;2023-04-24T05:32:49;94307.97;;;9.43;100.00
19457;BME280;9867;48.094;11.478;2023-04-24T05:35:17;94309.22;;;9.34;100.00
19457;BME280;9867;48.094;11.478;2023-04-24T05:37:46;94300.13;;;9.38;100.00
19457;BME280;9867;48.094;11.478;2023-04-24T05:40:15;94300.78;;;9.52;100.00
19457;BME280;9867;48.094;11.478;2023-04-24T05:42:43;94304.03;;;9.41;100.00
19457;BME280;9867;48.094;11.478;2023-04-24T05:45:12;94309.78;;;9.36;100.00
19457;BME280;9867;48.094;11.478;2023-04-24T05:47:43;94302.69;;;9.38;100.00
19457;BME280;9867;48.094;11.478;2023-04-24T05:50:12;94302.34;;;9.53;100.00
19457;BME280;9867;48.094;11.478;2023-04-24T05:52:40;94302.72;;;9.56;100.00
19457;BME280;9867;48.094;11.478;2023-04-24T05:55:21;94315.75;;;9.73;100.00
19457;BME280;9867;48.094;11.478;2023-04-24T05:57:48;94312.84;;;9.70;100.00
19457;BME280;9867;48.094;11.478;2023-04-24T06:00:18;94307.59;;;9.83;100.00
19457;BME280;9867;48.094;11.478;2023-04-24T06:02:56;94314.16;;;9.97;100.00
19457;BME280;9867;48.094;11.478;2023-04-24T06:05:24;94324.91;;;10.06;100.00
19457;BME280;9867;48.094;11.478;2023-04-24T06:07:52;94326.28;;;10.08;100.00
19457;BME280;9867;48.094;11.478;2023-04-24T06:10:33;94324.19;;;10.17;100.00
19457;BME280;9867;48.094;11.478;2023-04-24T06:13:20;94327.28;;;10.25;100.00
19457;BME280;9867;48.094;11.478;2023-04-24T06:16:15;94322.88;;;10.14;100.00
19457;BME280;9867;48.094;11.478;2023-04-24T06:18:49;94337.94;;;10.04;100.00
19457;BME280;9867;48.094;11.478;2023-04-24T06:21:19;94324.19;;;10.17;100.00
19457;BME280;9867;48.094;11.478;2023-04-24T06:23:46;94332.31;;;10.14;100.00
19457;BME280;9867;48.094;11.478;2023-04-24T06:26:16;94339.97;;;10.20;100.00
19457;BME280;9867;48.094;11.478;2023-04-24T06:28:43;94332.06;;;10.22;100.00
19457;BME280;9867;48.094;11.478;2023-04-24T06:31:11;94335.75;;;10.26;100.00
19457;BME280;9867;48.094;11.478;2023-04-24T06:33:40;94340.63;;;10.34;100.00
19457;BME280;9867;48.094;11.478;2023-04-24T06:36:09;94339.56;;;10.17;100.00
19457;BME280;9867;48.094;11.478;2023-04-24T06:38:38;94350.88;;;10.34;100.00
19457;BME280;9867;48.094;11.478;2023-04-24T06:41:09;94342.81;;;10.49;100.00
19457;BME280;9867;48.094;11.478;2023-04-24T06:43:37;94335.63;;;10.57;100.00
19457;BME280;9867;48.094;11.478;2023-04-24T06:46:04;94350.34;;;10.62;100.00
19457;BME280;9867;48.094;11.478;2023-04-24T06:48:32;94351.56;;;10.41;100.00
19457;BME280;9867;48.094;11.478;2023-04-24T06:51:01;94353.03;;;10.85;100.00
19457;BME280;9867;48.094;11.478;2023-04-24T06:53:29;94358.69;;;10.87;100.00
19457;BME280;9867;48.094;11.478;2023-04-24T06:55:57;94365.22;;;10.72;100.00
19457;BME280;9867;48.094;11.478;2023-04-24T06:58:25;94357.66;;;10.77;100.00
19457;BME280;9867;48.094;11.478;2023-04-24T07:00:53;94360.72;;;10.85;100.00
19457;BME280;9867;48.094;11.478;2023-04-24T07:03:21;94360.91;;;11.02;100.00
19457;BME280;9867;48.094;11.478;2023-04-24T07:05:49;94350.97;;;11.06;100.00
19457;BME280;9867;48.094;11.478;2023-04-24T07:08:19;94355.09;;;10.77;100.00
19457;BME280;9867;48.094;11.478;2023-04-24T07:10:49;94360.31;;;10.70;100.00
19457;BME280;9867;48.094;11.478;2023-04-24T07:13:17;94359.16;;;10.84;100.00
19457;BME280;9867;48.094;11.478;2023-04-24T07:15:45;94370.13;;;10.73;100.00
19457;BME280;9867;48.094;11.478;2023-04-24T07:18:15;94373.66;;;10.61;100.00
19457;BME280;9867;48.094;11.478;2023-04-24T07:20:43;94372.06;;;10.78;100.00
19457;BME280;9867;48.094;11.478;2023-04-24T07:23:11;94371.78;;;10.86;100.00
19457;BME280;9867;48.094;11.478;2023-04-24T07:25:40;94378.69;;;10.85;100.00
19457;BME280;9867;48.094;11.478;2023-04-24T07:28:08;94367.06;;;11.13;100.00
19457;BME280;9867;48.094;11.478;2023-04-24T07:30:36;94388.25;;;11.08;100.00
19457;BME280;9867;48.094;11.478;2023-04-24T07:33:04;94399.91;;;10.92;100.00
19457;BME280;9867;48.094;11.478;2023-04-24T07:35:33;94387.03;;;10.81;100.00
19457;BME280;9867;48.094;11.478;2023-04-24T07:38:02;94386.03;;;10.82;100.00
19457;BME280;9867;48.094;11.478;2023-04-24T07:40:29;94390.88;;;10.72;100.00
19457;BME280;9867;48.094;11.478;2023-04-24T07:42:59;94392.09;;;10.69;100.00
19457;BME280;9867;48.094;11.478;2023-04-24T07:45:27;94389.16;;;10.66;100.00
19457;BME280;9867;48.094;11.478;2023-04-24T07:47:54;94391.16;;;10.82;100.00
19457;BME280;9867;48.094;11.478;2023-04-24T07:50:22;94398.13;;;10.93;100.00
19457;BME280;9867;48.094;11.478;2023-04-24T07:52:50;94406.59;;;10.93;100.00
19457;BME280;9867;48.094;11.478;2023-04-24T07:55:18;94405.88;;;11.76;100.00
19457;BME280;9867;48.094;11.478;2023-04-24T07:57:50;94396.81;;;11.74;100.00
19457;BME280;9867;48.094;11.478;2023-04-24T08:00:20;94404.28;;;11.75;100.00
19457;BME280;9867;48.094;11.478;2023-04-24T08:02:48;94398.78;;;11.60;100.00
19457;BME280;9867;48.094;11.478;2023-04-24T08:05:16;94410.06;;;12.01;100.00
19457;BME280;9867;48.094;11.478;2023-04-24T08:07:45;94416.19;;;12.11;100.00
19457;BME280;9867;48.094;11.478;2023-04-24T08:10:15;94411.81;;;11.47;100.00
19457;BME280;9867;48.094;11.478;2023-04-24T08:12:42;94412.25;;;11.44;100.00
19457;BME280;9867;48.094;11.478;2023-04-24T08:15:10;94418.03;;;11.27;100.00
19457;BME280;9867;48.094;11.478;2023-04-24T08:17:40;94420.91;;;11.01;100.00
19457;BME280;9867;48.094;11.478;2023-04-24T08:20:09;94427.13;;;10.93;100.00
19457;BME280;9867;48.094;11.478;2023-04-24T08:22:40;94408.66;;;11.03;100.00
19457;BME280;9867;48.094;11.478;2023-04-24T08:25:09;94424.00;;;10.73;100.00
19457;BME280;9867;48.094;11.478;2023-04-24T08:27:37;94422.72;;;10.64;100.00
19457;BME280;9867;48.094;11.478;2023-04-24T08:30:06;94428.84;;;10.63;100.00
19457;BME280;9867;48.094;11.478;2023-04-24T08:32:34;94449.97;;;10.40;100.00
19457;BME280;9867;48.094;11.478;2023-04-24T08:35:04;94456.75;;;10.10;100.00
19457;BME280;9867;48.094;11.478;2023-04-24T08:37:32;94455.97;;;10.09;100.00
19457;BME280;9867;48.094;11.478;2023-04-24T08:40:00;94455.09;;;10.22;100.00
19457;BME280;9867;48.094;11.478;2023-04-24T08:42:29;94476.41;;;10.41;100.00
19457;BME280;9867;48.094;11.478;2023-04-24T08:44:59;94478.09;;;10.29;100.00
19457;BME280;9867;48.094;11.478;2023-04-24T08:47:29;94475.91;;;10.32;100.00
19457;BME280;9867;48.094;11.478;2023-04-24T08:49:58;94462.97;;;10.45;100.00
19457;BME280;9867;48.094;11.478;2023-04-24T08:52:32;94477.34;;;10.46;100.00
19457;BME280;9867;48.094;11.478;2023-04-24T08:55:00;94475.56;;;10.47;100.00
19457;BME280;9867;48.094;11.478;2023-04-24T08:57:28;94477.75;;;10.18;100.00
19457;BME280;9867;48.094;11.478;2023-04-24T08:59:58;94492.63;;;10.10;100.00
19457;BME280;9867;48.094;11.478;2023-04-24T09:02:26;94490.91;;;10.53;100.00
19457;BME280;9867;48.094;11.478;2023-04-24T09:04:55;94489.31;;;10.34;100.00
19457;BME280;9867;48.094;11.478;2023-04-24T09:07:24;94466.72;;;10.18;100.00
19457;BME280;9867;48.094;11.478;2023-04-24T09:09:54;94481.66;;;10.28;100.00
19457;BME280;9867;48.094;11.478;2023-04-24T09:12:22;94483.56;;;10.57;100.00
19457;BME280;9867;48.094;11.478;2023-04-24T09:14:51;94476.72;;;10.69;100.00
19457;BME280;9867;48.094;11.478;2023-04-24T09:17:20;94490.75;;;10.67;100.00
19457;BME280;9867;48.094;11.478;2023-04-24T09:19:49;94482.06;;;11.22;100.00
19457;BME280;9867;48.094;11.478;2023-04-24T09:22:17;94478.38;;;10.82;100.00
19457;BME280;9867;48.094;11.478;2023-04-24T09:24:45;94473.03;;;10.65;100.00
19457;BME280;9867;48.094;11.478;2023-04-24T09:27:14;94474.47;;;10.61;100.00
19457;BME280;9867;48.094;11.478;2023-04-24T09:29:53;94478.75;;;10.85;100.00
19457;BME280;9867;48.094;11.478;2023-04-24T09:32:22;94488.69;;;11.12;100.00
19457;BME280;9867;48.094;11.478;2023-04-24T09:35:05;94491.56;;;11.22;100.00
19457;BME280;9867;48.094;11.478;2023-04-24T09:37:38;94488.47;;;11.13;100.00
19457;BME280;9867;48.094;11.478;2023-04-24T09:40:12;94489.38;;;11.37;100.00
19457;BME280;9867;48.094;11.478;2023-04-24T09:42:43;94479.00;;;11.14;100.00
19457;BME280;9867;48.094;11.478;2023-04-24T09:45:12;94471.00;;;11.22;100.00
19457;BME280;9867;48.094;11.478;2023-04-24T09:47:41;94490.16;;;11.68;100.00
19457;BME280;9867;48.094;11.478;2023-04-24T09:50:14;94483.84;;;12.23;100.00
19457;BME280;9867;48.094;11.478;2023-04-24T09:52:46;94461.56;;;12.06;100.00
19457;BME280;9867;48.094;11.478;2023-04-24T09:55:17;94480.81;;;12.15;100.00
19457;BME280;9867;48.094;11.478;2023-04-24T09:57:55;94464.59;;;12.03;100.00
19457;BME280;9867;48.094;11.478;2023-04-24T10:00:24;94474.91;;;12.26;100.00
19457;BME280;9867;48.094;11.478;2023-04-24T10:02:57;94458.22;;;12.17;100.00
19457;BME280;9867;48.094;11.478;2023-04-24T10:05:30;94464.28;;;12.22;100.00
19457;BME280;9867;48.094;11.478;2023-04-24T10:08:02;94473.56;;;12.35;100.00
19457;BME280;9867;48.094;11.478;2023-04-24T10:10:31;94478.50;;;12.48;100.00
19457;BME280;9867;48.094;11.478;2023-04-24T10:13:01;94466.44;;;11.84;100.00
19457;BME280;9867;48.094;11.478;2023-04-24T10:15:30;94470.63;;;12.08;100.00
19457;BME280;9867;48.094;11.478;2023-04-24T10:17:58;94473.34;;;12.25;100.00
19457;BME280;9867;48.094;11.478;2023-04-24T10:20:28;94464.50;;;12.44;100.00
19457;BME280;9867;48.094;11.478;2023-04-24T10:22:57;94468.16;;;12.02;100.00
19457;BME280;9867;48.094;11.478;2023-04-24T10:25:27;94461.47;;;12.12;100.00
19457;BME280;9867;48.094;11.478;2023-04-24T10:27:56;94462.13;;;12.08;100.00
19457;BME280;9867;48.094;11.478;2023-04-24T10:30:28;94451.16;;;11.89;100.00
19457;BME280;9867;48.094;11.478;2023-04-24T10:32:56;94455.28;;;11.90;100.00
19457;BME280;9867;48.094;11.478;2023-04-24T10:35:24;94466.44;;;11.84;100.00
19457;BME280;9867;48.094;11.478;2023-04-24T10:37:56;94456.06;;;11.79;100.00
19457;BME280;9867;48.094;11.478;2023-04-24T10:40:26;94465.47;;;11.97;100.00
19457;BME280;9867;48.094;11.478;2023-04-24T10:42:56;94472.50;;;11.89;100.00
19457;BME280;9867;48.094;11.478;2023-04-24T10:45:25;94513.88;;;11.70;100.00
19457;BME280;9867;48.094;11.478;2023-04-24T10:48:04;94526.28;;;10.20;100.00
19457;BME280;9867;48.094;11.478;2023-04-24T10:50:44;94520.34;;;9.18;100.00
19457;BME280;9867;48.094;11.478;2023-04-24T10:53:14;94519.09;;;8.63;100.00
19457;BME280;9867;48.094;11.478;2023-04-24T10:55:45;94495.31;;;8.56;100.00
19457;BME280;9867;48.094;11.478;2023-04-24T10:58:13;94493.72;;;8.68;100.00
19457;BME280;9867;48.094;11.478;2023-04-24T11:00:55;94503.50;;;8.91;100.00
19457;BME280;9867;48.094;11.478;2023-04-24T11:03:28;94492.56;;;9.60;100.00
19457;BME280;9867;48.094;11.478;2023-04-24T11:05:58;94499.66;;;10.46;100.00
19457;BME280;9867;48.094;11.478;2023-04-24T11:08:32;94489.91;;;10.54;100.00
19457;BME280;9867;48.094;11.478;2023-04-24T11:11:03;94484.72;;;10.79;100.00
19457;BME280;9867;48.094;11.478;2023-04-24T11:14:02;94481.78;;;11.31;100.00
19457;BME280;9867;48.094;11.478;2023-04-24T11:16:34;94491.22;;;11.48;100.00
19457;BME280;9867;48.094;11.478;2023-04-24T11:19:06;94487.91;;;11.59;100.00
19457;BME280;9867;48.094;11.478;2023-04-24T11:21:40;94498.56;;;12.05;100.00
19457;BME280;9867;48.094;11.478;2023-04-24T11:24:26;94502.09;;;11.80;100.00
19457;BME280;9867;48.094;11.478;2023-04-24T11:26:56;94480.03;;;12.14;100.00
19457;BME280;9867;48.094;11.478;2023-04-24T11:29:38;94480.72;;;12.68;100.00
19457;BME280;9867;48.094;11.478;2023-04-24T11:32:33;94493.22;;;12.76;100.00
19457;BME280;9867;48.094;11.478;2023-04-24T11:35:04;94505.63;;;12.79;100.00
19457;BME280;9867;48.094;11.478;2023-04-24T11:37:34;94507.78;;;12.47;100.00
19457;BME280;9867;48.094;11.478;2023-04-24T11:40:05;94495.34;;;12.91;100.00
19457;BME280;9867;48.094;11.478;2023-04-24T11:42:34;94500.06;;;12.71;100.00
19457;BME280;9867;48.094;11.478;2023-04-24T11:45:07;94500.50;;;12.56;100.00
19457;BME280;9867;48.094;11.478;2023-04-24T11:47:36;94485.75;;;12.40;100.00
19457;BME280;9867;48.094;11.478;2023-04-24T11:50:07;94502.66;;;12.47;100.00
19457;BME280;9867;48.094;11.478;2023-04-24T11:52:37;94505.81;;;11.96;100.00
19457;BME280;9867;48.094;11.478;2023-04-24T11:55:07;94502.97;;;11.86;100.00
19457;BME280;9867;48.094;11.478;2023-04-24T11:57:36;94518.06;;;11.34;100.00
19457;BME280;9867;48.094;11.478;2023-04-24T12:00:05;94506.75;;;10.87;100.00
19457;BME280;9867;48.094;11.478;2023-04-24T12:02:38;94519.38;;;11.07;100.00
19457;BME280;9867;48.094;11.478;2023-04-24T12:05:08;94538.13;;;11.07;100.00
19457;BME280;9867;48.094;11.478;2023-04-24T12:07:41;94507.41;;;11.49;100.00
19457;BME280;9867;48.094;11.478;2023-04-24T12:10:10;94506.94;;;11.70;100.00
19457;BME280;9867;48.094;11.478;2023-04-24T12:12:38;94501.75;;;11.77;100.00
19457;BME280;9867;48.094;11.478;2023-04-24T12:15:07;94508.38;;;11.66;100.00
19457;BME280;9867;48.094;11.478;2023-04-24T12:17:35;94494.03;;;11.77;100.00
19457;BME280;9867;48.094;11.478;2023-04-24T12:20:06;94475.63;;;11.61;100.00
19457;BME280;9867;48.094;11.478;2023-04-24T12:22:45;94481.13;;;12.07;100.00
19457;BME280;9867;48.094;11.478;2023-04-24T12:25:14;94486.28;;;12.18;100.00
19457;BME280;9867;48.094;11.478;2023-04-24T12:27:43;94497.81;;;12.39;100.00
19457;BME280;9867;48.094;11.478;2023-04-24T12:30:12;94490.44;;;12.43;100.00
19457;BME280;9867;48.094;11.478;2023-04-24T12:32:42;94477.47;;;12.38;100.00
19457;BME280;9867;48.094;11.478;2023-04-24T12:35:11;94480.59;;;12.63;100.00
19457;BME280;9867;48.094;11.478;2023-04-24T12:37:42;94493.94;;;12.48;100.00
19457;BME280;9867;48.094;11.478;2023-04-24T12:40:14;94490.78;;;12.70;100.00
19457;BME280;9867;48.094;11.478;2023-04-24T12:42:44;94493.97;;;13.00;100.00
19457;BME280;9867;48.094;11.478;2023-04-24T12:45:12;94510.81;;;12.68;100.00
19457;BME280;9867;48.094;11.478;2023-04-24T12:47:42;94506.31;;;12.86;100.00
19457;BME280;9867;48.094;11.478;2023-04-24T12:50:12;94515.38;;;12.42;100.00
19457;BME280;9867;48.094;11.478;2023-04-24T12:52:40;94501.38;;;12.15;100.00
19457;BME280;9867;48.094;11.478;2023-04-24T12:55:09;94500.84;;;12.24;100.00
19457;BME280;9867;48.094;11.478;2023-04-24T12:57:40;94504.66;;;12.57;100.00
19457;BME280;9867;48.094;11.478;2023-04-24T13:00:08;94509.00;;;12.91;100.00
19457;BME280;9867;48.094;11.478;2023-04-24T13:02:36;94503.63;;;12.81;100.00
19457;BME280;9867;48.094;11.478;2023-04-24T13:05:08;94502.72;;;12.99;100.00
19457;BME280;9867;48.094;11.478;2023-04-24T13:07:38;94511.75;;;13.37;100.00
19457;BME280;9867;48.094;11.478;2023-04-24T13:10:07;94499.09;;;13.23;100.00